Megargel, AL (36457)

2:53 PM CDT on July 04, 2015 (GMT -0500)
Barlow Bend | | Change Station
CLOSE
Current Station
Personal Weather Station
Location: Gainestown, AL
Elevation: 72 ft
Nearby Weather Stations

Elev 72 ft 31.46 °N, 87.58 °W | Updated 12 seconds ago

Partly Cloudy
Partly Cloudy
90.5 °F
Feels Like 100 °F
N
0.0
Wind Variable Wind from SW
Gusts 0.0 mph

Today
High -- | Low -- °F
--% Chance of Precip.
Yesterday
High -- | Low -- °F
Precip. -- in
5:49 AM 7:58 PM
Waning Gibbous, 90% visible
Pressure 30.01 in
Visibility 10.0 miles
Clouds Few 4900 ft
Heat Index 100 °F
Dew Point 74 °F
Humidity 58%
Rainfall 0.00 in
Snow Depth Not available.
UV 4.0 out of 12
Pollen 2.10 out of 12
Air Quality Not available.
Flu Activity Not available.
METAR KGZH 041853Z AUTO 24008KT 10SM FEW049 33/21 A3002 RMK AO2 SLP163 T03280206

More Conditions Fewer Conditions

Pressure 30.01 in
Visibility 10.0 miles
Clouds Few 4900 ft
Heat Index 100 °F
Dew Point 74 °F
Humidity 58%
Rainfall 0.00 in
Snow Depth Not available.
UV 4.0 out of 12
Pollen 2.10 out of 12
Air Quality Not available.
Flu Activity Not available.
METAR KGZH 041853Z AUTO 24008KT 10SM FEW049 33/21 A3002 RMK AO2 SLP163 T03280206

More Conditions Fewer Conditions

10-Day Weather Forecast

×

Almanac

Astronomy

Jul. 04, 2015 Rise Set
Actual Time
Civil Twilight
Nautical Twilight
Astronomical Twilight
Moon
Length of Visible Light
Length of Day
Tomorrow will be .
, % of the Moon is Illuminated

Today's Extremes

State Highs State Lows

Community

WunderPhotos

Upload Photos

1,835,065 photos uploaded!

WunderBlogs® & News

Nearby

Air Quality

  Air Quality AQ Index Pollutant
Not available.

Snow Depth

Station Depth Elevation

Earthquake Activity

City Distance Mag. Time & Date
Minimum magnitude displayed is 2.5.

Coastal Water Temperatures

Place Temperature

Stations

Nearby Weather Stations

Station Location Temp. Windchill Dew Point Humidity Wind Precip. Elev Updated Type